Time;durP1;ratioP1;P1;durP2;ratioP2;P2;SDS_P1;SDS_P2;PMS_P1;PMS_P2;Temp;Humidity;BMP_temperature;BMP_pressure;BME280_temperature;BME280_humidity;BME280_pressure;Samples;Min_cycle;Max_cycle;Signal;HPM_P1;HPM_P2
2023/11/22 00:01:12;;;;;;;28.40;7.43;;;8.20;99.90;;;;;;5052843;28;20173;-82
2023/11/22 00:03:37;;;;;;;30.23;8.57;;;8.20;99.90;;;;;;5052602;28;20421;-82
2023/11/22 00:06:03;;;;;;;28.43;7.17;;;8.20;99.90;;;;;;5035235;28;20181;-82
2023/11/22 00:08:29;;;;;;;27.60;8.03;;;8.20;99.90;;;;;;5051606;28;20170;-82
2023/11/22 00:10:55;;;;;;;27.00;7.80;;;8.20;99.90;;;;;;5052651;28;20452;-82
2023/11/22 00:13:21;;;;;;;28.97;7.83;;;8.20;99.90;;;;;;5051736;28;20182;-82
2023/11/22 00:15:46;;;;;;;34.63;8.10;;;8.20;99.90;;;;;;5052820;28;20390;-82
2023/11/22 00:18:12;;;;;;;27.87;8.53;;;8.20;99.90;;;;;;5052699;28;20169;-83
2023/11/22 00:20:38;;;;;;;28.20;7.70;;;8.20;99.90;;;;;;5051961;28;20173;-83
2023/11/22 00:23:03;;;;;;;29.63;7.40;;;8.10;99.90;;;;;;5051797;28;20166;-82
2023/11/22 00:25:29;;;;;;;31.97;8.47;;;8.10;99.90;;;;;;5034737;28;20170;-82
2023/11/22 00:27:55;;;;;;;29.83;8.10;;;8.10;99.90;;;;;;5051831;28;20559;-83
2023/11/22 00:30:21;;;;;;;32.33;8.90;;;8.10;99.90;;;;;;5051723;28;20276;-82
2023/11/22 00:32:47;;;;;;;28.40;7.27;;;8.10;99.90;;;;;;5051256;28;20168;-82
2023/11/22 00:35:13;;;;;;;28.15;7.43;;;8.20;99.90;;;;;;5052104;28;20208;-82
2023/11/22 00:37:38;;;;;;;30.30;8.43;;;8.20;99.90;;;;;;5034429;28;20169;-83
2023/11/22 00:40:10;;;;;;;31.50;8.07;;;8.20;99.90;;;;;;5052114;28;20154;-82
2023/11/22 00:42:37;;;;;;;27.73;7.20;;;8.10;99.90;;;;;;5034144;28;20162;-82
2023/11/22 00:45:06;;;;;;;27.80;8.45;;;8.10;99.90;;;;;;5051157;28;20182;-83
2023/11/22 00:47:35;;;;;;;29.05;8.43;;;8.00;99.90;;;;;;5051161;28;20158;-82
2023/11/22 00:50:03;;;;;;;28.85;7.75;;;8.00;99.90;;;;;;5033910;28;20598;-82
2023/11/22 00:52:29;;;;;;;33.58;8.13;;;8.00;99.90;;;;;;5050942;28;20166;-83
2023/11/22 00:54:54;;;;;;;30.30;9.00;;;7.90;99.90;;;;;;5051105;28;20211;-82
2023/11/22 00:57:20;;;;;;;31.23;8.10;;;8.00;99.90;;;;;;5034444;28;20166;-82
2023/11/22 00:59:46;;;;;;;28.07;7.33;;;8.10;99.90;;;;;;5051069;28;20193;-82
2023/11/22 01:02:12;;;;;;;28.57;7.27;;;8.10;99.90;;;;;;5050958;28;20599;-82
2023/11/22 01:04:37;;;;;;;32.60;8.33;;;8.00;99.90;;;;;;5033284;28;20244;-82
2023/11/22 01:07:04;;;;;;;30.27;8.13;;;8.00;99.90;;;;;;5051981;28;20166;-82
2023/11/22 01:09:33;;;;;;;29.50;8.00;;;7.90;99.90;;;;;;5032740;28;20232;-82
2023/11/22 01:11:59;;;;;;;27.40;6.75;;;7.90;99.90;;;;;;5051159;28;20248;-82
2023/11/22 01:14:28;;;;;;;26.55;7.60;;;8.00;99.90;;;;;;5050662;28;20229;-82
2023/11/22 01:16:55;;;;;;;27.08;7.22;;;7.90;99.90;;;;;;5050349;28;20162;-82
2023/11/22 01:19:21;;;;;;;31.65;8.80;;;7.90;99.90;;;;;;5033296;28;20169;-82
2023/11/22 01:21:47;;;;;;;30.97;7.30;;;7.90;99.90;;;;;;5050515;28;20193;-82
2023/11/22 01:24:13;;;;;;;28.53;7.53;;;8.00;99.90;;;;;;5050213;28;20424;-82
2023/11/22 01:26:38;;;;;;;28.30;8.20;;;7.90;99.90;;;;;;5050951;28;20400;-82
2023/11/22 01:29:05;;;;;;;28.40;7.93;;;7.80;99.90;;;;;;5050342;28;20408;-82
2023/11/22 01:31:32;;;;;;;29.55;9.02;;;7.80;99.90;;;;;;5050272;28;20726;-82
2023/11/22 01:33:58;;;;;;;30.88;8.00;;;7.90;99.90;;;;;;5050231;28;20281;-82
2023/11/22 01:36:25;;;;;;;33.67;8.27;;;7.90;99.90;;;;;;5050327;28;20158;-82
2023/11/22 01:38:52;;;;;;;28.85;8.30;;;8.00;99.90;;;;;;5050687;28;20158;-82
2023/11/22 01:41:18;;;;;;;29.92;7.95;;;7.90;99.90;;;;;;5049931;28;20161;-82
2023/11/22 01:43:43;;;;;;;29.17;7.20;;;7.90;99.90;;;;;;5049610;28;20189;-82
2023/11/22 01:46:15;;;;;;;28.77;7.13;;;7.90;99.90;;;;;;5049280;28;20409;-82
2023/11/22 01:48:41;;;;;;;28.10;6.93;;;7.90;99.90;;;;;;5050245;28;20158;-82
2023/11/22 01:51:08;;;;;;;29.97;8.10;;;7.80;99.90;;;;;;5049700;28;20197;-82
2023/11/22 01:53:34;;;;;;;30.10;8.77;;;7.90;99.90;;;;;;5049791;28;20188;-82
2023/11/22 01:56:01;;;;;;;30.60;7.38;;;7.80;99.90;;;;;;5031814;28;20237;-82
2023/11/22 01:58:28;;;;;;;30.70;8.77;;;7.80;99.90;;;;;;5031983;28;20166;-82
2023/11/22 02:00:54;;;;;;;32.38;8.02;;;7.80;99.90;;;;;;5049856;28;20170;-82
2023/11/22 02:03:20;;;;;;;39.63;8.40;;;7.70;99.90;;;;;;5049538;28;20492;-82
2023/11/22 02:05:46;;;;;;;29.67;7.88;;;7.70;99.90;;;;;;5049884;28;20415;-82
2023/11/22 02:08:13;;;;;;;30.48;9.10;;;7.70;99.90;;;;;;5033005;28;20174;-82
2023/11/22 02:10:39;;;;;;;31.13;7.95;;;7.80;99.90;;;;;;5033132;28;20193;-82
2023/11/22 02:13:07;;;;;;;32.30;8.07;;;7.70;99.90;;;;;;5049775;28;20230;-82
2023/11/22 02:15:34;;;;;;;29.48;7.68;;;7.70;99.90;;;;;;5033051;28;20178;-82
2023/11/22 02:18:00;;;;;;;27.58;6.85;;;7.70;99.90;;;;;;5031808;28;20237;-82
2023/11/22 02:20:26;;;;;;;28.33;8.00;;;7.70;99.90;;;;;;5031620;28;20180;-82
2023/11/22 02:22:54;;;;;;;25.93;6.90;;;7.60;99.90;;;;;;5050113;28;20166;-82
2023/11/22 02:25:20;;;;;;;30.42;8.88;;;7.60;99.90;;;;;;5032878;28;20254;-82
2023/11/22 02:27:45;;;;;;;29.87;9.30;;;7.60;99.90;;;;;;5050587;28;20166;-82
2023/11/22 02:30:11;;;;;;;29.37;8.00;;;7.60;99.90;;;;;;5050701;28;20448;-82
2023/11/22 02:32:39;;;;;;;27.57;6.60;;;7.60;99.90;;;;;;5032813;28;20261;-82
2023/11/22 02:35:07;;;;;;;29.90;7.90;;;7.70;99.90;;;;;;5054036;28;20459;-82
2023/11/22 02:37:34;;;;;;;27.90;7.75;;;7.70;99.90;;;;;;5036574;28;20190;-82
2023/11/22 02:40:19;;;;;;;28.77;7.55;;;7.70;99.90;;;;;;5053635;28;20176;-83
2023/11/22 02:42:47;;;;;;;28.58;8.30;;;7.60;99.90;;;;;;5054822;28;20154;-82
2023/11/22 02:45:16;;;;;;;29.60;8.65;;;7.70;99.90;;;;;;5035423;28;20189;-82
2023/11/22 02:47:46;;;;;;;28.40;8.10;;;7.70;99.90;;;;;;5052816;28;20166;-82
2023/11/22 02:50:12;;;;;;;29.23;7.72;;;7.70;99.90;;;;;;5053141;28;20228;-82
2023/11/22 02:52:38;;;;;;;30.25;7.95;;;7.70;99.90;;;;;;5053896;28;20192;-82
2023/11/22 02:55:07;;;;;;;30.13;7.83;;;7.70;99.90;;;;;;5053075;28;20181;-82
2023/11/22 02:57:33;;;;;;;30.67;7.95;;;7.70;99.90;;;;;;5053487;28;20165;-82
2023/11/22 02:59:58;;;;;;;31.03;8.43;;;7.60;99.90;;;;;;5053289;28;20162;-82
2023/11/22 03:02:24;;;;;;;28.93;7.70;;;7.60;99.90;;;;;;5053380;28;20532;-82
2023/11/22 03:04:50;;;;;;;27.90;7.97;;;7.60;99.90;;;;;;5053465;28;20177;-82
2023/11/22 03:07:16;;;;;;;29.65;7.75;;;7.60;99.90;;;;;;5053231;28;20165;-82
2023/11/22 03:09:43;;;;;;;25.90;6.22;;;7.60;99.90;;;;;;5035837;28;20168;-82
2023/11/22 03:12:09;;;;;;;27.05;7.97;;;7.60;99.90;;;;;;5052732;28;20252;-82
2023/11/22 03:14:36;;;;;;;29.63;7.63;;;7.50;99.90;;;;;;5052976;28;20205;-82
2023/11/22 03:17:01;;;;;;;27.48;7.28;;;7.50;99.90;;;;;;5035627;28;20185;-82
2023/11/22 03:19:28;;;;;;;27.77;7.63;;;7.60;99.90;;;;;;5036380;28;20162;-82
2023/11/22 03:21:55;;;;;;;30.08;7.90;;;7.60;99.90;;;;;;5053617;28;20162;-82
2023/11/22 03:24:21;;;;;;;28.60;7.43;;;7.60;99.90;;;;;;5052639;28;20177;-82
2023/11/22 03:26:47;;;;;;;31.90;8.30;;;7.50;99.90;;;;;;5053592;28;20169;-82
2023/11/22 03:29:16;;;;;;;28.00;6.97;;;7.50;99.90;;;;;;5053002;28;20894;-82
2023/11/22 03:31:42;;;;;;;30.38;8.57;;;7.60;99.90;;;;;;5053382;28;20284;-82
2023/11/22 03:34:07;;;;;;;27.80;8.07;;;7.50;99.90;;;;;;5053166;28;20678;-82
2023/11/22 03:36:33;;;;;;;28.30;7.77;;;7.40;99.90;;;;;;5053695;28;20170;-82
2023/11/22 03:38:59;;;;;;;28.17;7.13;;;7.30;99.90;;;;;;5053173;28;20162;-82
2023/11/22 03:41:25;;;;;;;28.90;7.37;;;7.30;99.90;;;;;;5053104;28;20192;-82
2023/11/22 03:43:50;;;;;;;29.33;8.07;;;7.30;99.90;;;;;;5052461;28;20193;-82
2023/11/22 03:46:16;;;;;;;29.00;7.37;;;7.30;99.90;;;;;;5035531;28;20205;-82
2023/11/22 03:48:41;;;;;;;32.17;8.10;;;7.30;99.90;;;;;;5052502;28;20177;-82
2023/11/22 03:51:08;;;;;;;28.08;7.55;;;7.30;99.90;;;;;;5052655;28;20240;-82
2023/11/22 03:53:36;;;;;;;30.50;8.17;;;7.30;99.90;;;;;;5052474;28;20178;-82
2023/11/22 03:56:02;;;;;;;30.17;8.00;;;7.40;99.90;;;;;;5052758;28;20651;-82
2023/11/22 03:58:28;;;;;;;29.90;7.63;;;7.30;99.90;;;;;;5052483;28;20162;-82
2023/11/22 04:00:53;;;;;;;28.67;8.10;;;7.30;99.90;;;;;;5052372;28;20166;-82
2023/11/22 04:03:19;;;;;;;27.73;7.07;;;7.30;99.90;;;;;;5051906;28;20170;-82
2023/11/22 04:05:45;;;;;;;26.40;7.20;;;7.30;99.90;;;;;;5052980;28;20166;-82
2023/11/22 04:08:10;;;;;;;26.10;7.33;;;7.30;99.90;;;;;;5051671;28;20166;-82
2023/11/22 04:10:39;;;;;;;28.90;8.13;;;7.30;99.90;;;;;;5052091;28;20196;-82
2023/11/22 04:13:04;;;;;;;26.63;7.30;;;7.20;99.90;;;;;;5034405;28;20156;-82
2023/11/22 04:15:30;;;;;;;27.37;8.20;;;7.10;99.90;;;;;;5052331;28;20181;-82
2023/11/22 04:17:56;;;;;;;28.30;7.13;;;7.10;99.90;;;;;;5051840;28;20166;-82
2023/11/22 04:20:22;;;;;;;28.80;7.93;;;7.20;99.90;;;;;;5052292;28;20166;-82
2023/11/22 04:22:48;;;;;;;27.67;7.15;;;7.20;99.90;;;;;;5051364;28;20162;-82
2023/11/22 04:25:14;;;;;;;29.50;8.60;;;7.10;99.90;;;;;;5034609;28;20292;-82
2023/11/22 04:27:41;;;;;;;28.23;7.60;;;7.10;99.90;;;;;;5034038;28;20193;-82
2023/11/22 04:33:00;;;;;;;30.27;7.95;;;7.10;99.90;;;;;;5049184;28;20180;-82
2023/11/22 04:35:28;;;;;;;27.83;7.20;;;7.00;99.90;;;;;;5051271;28;20162;-82
2023/11/22 04:37:58;;;;;;;26.95;7.82;;;7.00;99.90;;;;;;5051431;28;20237;-82
2023/11/22 04:40:27;;;;;;;31.42;9.77;;;7.00;99.90;;;;;;5050937;28;20567;-82
2023/11/22 04:42:53;;;;;;;29.10;8.80;;;7.00;99.90;;;;;;5034051;28;20170;-82
2023/11/22 04:45:18;;;;;;;29.50;8.80;;;7.00;99.90;;;;;;5051081;28;20540;-82
2023/11/22 04:47:44;;;;;;;28.63;8.50;;;6.90;99.90;;;;;;5033813;28;20165;-82
2023/11/22 04:50:10;;;;;;;29.27;9.30;;;6.90;99.90;;;;;;5052120;28;20162;-82
2023/11/22 04:52:39;;;;;;;29.35;8.25;;;6.90;99.90;;;;;;5051989;28;20153;-82
2023/11/22 04:55:05;;;;;;;37.63;9.63;;;6.90;99.90;;;;;;5050709;28;20182;-82
2023/11/22 04:57:31;;;;;;;29.73;8.23;;;6.80;99.90;;;;;;5033476;28;20173;-82
2023/11/22 04:59:57;;;;;;;32.53;10.47;;;6.80;99.90;;;;;;5033165;28;20165;-82
2023/11/22 05:02:26;;;;;;;29.40;9.50;;;6.80;99.90;;;;;;5051728;28;20173;-82
2023/11/22 05:04:53;;;;;;;27.48;7.60;;;6.80;99.90;;;;;;5051519;28;20425;-82
2023/11/22 05:07:21;;;;;;;28.65;8.38;;;6.80;99.90;;;;;;5033621;28;20178;-82
2023/11/22 05:09:47;;;;;;;30.52;9.27;;;6.80;99.90;;;;;;5051900;28;20182;-82
2023/11/22 05:12:14;;;;;;;30.50;9.67;;;6.70;99.90;;;;;;5050727;28;20193;-82
2023/11/22 05:14:45;;;;;;;31.35;8.95;;;6.70;99.90;;;;;;5050544;28;20213;-82
2023/11/22 05:17:12;;;;;;;27.25;8.27;;;6.60;99.90;;;;;;5034045;28;20166;-82
2023/11/22 05:19:38;;;;;;;28.20;8.70;;;6.60;99.90;;;;;;5051523;28;20154;-82
2023/11/22 05:22:04;;;;;;;28.38;8.80;;;6.50;99.90;;;;;;5033665;28;20177;-82
2023/11/22 05:24:30;;;;;;;27.70;8.02;;;6.50;99.90;;;;;;5051108;28;20203;-82
2023/11/22 05:26:56;;;;;;;26.37;8.33;;;6.50;99.90;;;;;;5051194;28;20166;-82
2023/11/22 05:29:21;;;;;;;31.80;7.43;;;6.40;99.90;;;;;;5033313;28;20447;-82
2023/11/22 05:31:48;;;;;;;29.30;9.20;;;6.40;99.90;;;;;;5051739;28;20213;-82
2023/11/22 05:34:14;;;;;;;38.67;8.88;;;6.40;99.90;;;;;;5051063;28;20189;-82
2023/11/22 05:36:40;;;;;;;27.33;8.00;;;6.30;99.90;;;;;;5051320;28;20178;-82
2023/11/22 05:39:06;;;;;;;27.85;8.73;;;6.30;99.90;;;;;;5033106;28;20177;-82
2023/11/22 05:41:32;;;;;;;30.33;9.60;;;6.40;99.90;;;;;;5050131;28;20162;-82
2023/11/22 05:44:00;;;;;;;26.50;8.53;;;6.40;99.90;;;;;;5050190;28;20205;-82
2023/11/22 05:46:28;;;;;;;27.67;7.55;;;6.30;99.90;;;;;;5049645;28;20405;-82
2023/11/22 05:48:56;;;;;;;32.35;9.77;;;6.30;99.90;;;;;;5050050;28;20170;-82
2023/11/22 05:51:25;;;;;;;29.77;8.77;;;6.30;99.90;;;;;;5050060;28;20197;-82
2023/11/22 05:53:50;;;;;;;33.17;8.77;;;6.30;99.90;;;;;;5033058;28;20257;-82
2023/11/22 05:56:16;;;;;;;28.57;8.17;;;6.20;99.90;;;;;;5032493;28;20193;-82
2023/11/22 05:58:48;;;;;;;35.10;8.93;;;6.20;99.90;;;;;;5050018;28;20435;-82
2023/11/22 06:01:14;;;;;;;30.35;9.32;;;6.20;99.90;;;;;;5032657;28;20444;-82
2023/11/22 06:03:43;;;;;;;30.00;8.37;;;6.20;99.90;;;;;;5050149;28;20190;-82
2023/11/22 06:06:08;;;;;;;29.05;8.88;;;6.20;99.90;;;;;;5032642;28;20423;-82
2023/11/22 06:08:34;;;;;;;28.03;8.13;;;6.10;99.90;;;;;;5053715;28;20162;-82
2023/11/22 06:11:03;;;;;;;29.38;9.60;;;6.10;99.90;;;;;;5053503;28;20472;-82
2023/11/22 06:13:29;;;;;;;28.58;8.65;;;6.10;99.90;;;;;;5035857;28;20610;-82
2023/11/22 06:15:54;;;;;;;27.83;8.10;;;6.10;99.90;;;;;;5054556;28;20166;-82
2023/11/22 06:18:20;;;;;;;27.07;8.63;;;6.10;99.90;;;;;;5036287;28;20535;-82
2023/11/22 06:20:49;;;;;;;30.67;9.33;;;6.00;99.90;;;;;;5036522;28;20200;-82
2023/11/22 06:23:14;;;;;;;27.00;7.95;;;6.00;99.90;;;;;;5038615;28;20181;-82
2023/11/22 06:25:41;;;;;;;31.37;9.50;;;6.00;99.90;;;;;;5054094;28;20162;-82
2023/11/22 06:28:11;;;;;;;33.17;9.23;;;5.90;99.90;;;;;;5035404;28;20177;-82
2023/11/22 06:30:37;;;;;;;26.85;8.23;;;5.90;99.90;;;;;;5036559;28;20201;-82
2023/11/22 06:33:03;;;;;;;38.72;10.30;;;5.80;99.90;;;;;;5054693;28;20162;-82
2023/11/22 06:35:28;;;;;;;29.70;8.90;;;5.80;99.90;;;;;;5053772;28;20234;-82
2023/11/22 06:37:56;;;;;;;27.70;8.57;;;5.80;99.90;;;;;;5054158;28;20430;-82
2023/11/22 06:40:22;;;;;;;31.02;9.48;;;5.70;99.90;;;;;;5053326;28;20182;-82
2023/11/22 06:42:48;;;;;;;28.50;9.10;;;5.70;99.90;;;;;;5053501;28;20162;-82
2023/11/22 06:45:14;;;;;;;29.33;8.40;;;5.70;99.90;;;;;;5036815;28;20436;-82
2023/11/22 06:47:40;;;;;;;28.25;8.98;;;5.70;99.90;;;;;;5053529;28;20304;-82
2023/11/22 06:50:10;;;;;;;28.50;9.13;;;5.60;99.90;;;;;;5035755;28;20265;-82
2023/11/22 06:52:41;;;;;;;30.60;9.57;;;5.60;99.90;;;;;;5035944;28;20219;-82
2023/11/22 06:55:08;;;;;;;32.13;10.45;;;5.50;99.90;;;;;;5053811;28;20212;-82
2023/11/22 06:57:37;;;;;;;34.92;9.43;;;5.50;99.90;;;;;;5054077;28;20181;-82
2023/11/22 07:00:12;;;;;;;29.40;8.85;;;5.60;99.90;;;;;;5036103;28;20193;-82
2023/11/22 07:02:45;;;;;;;36.40;9.13;;;5.60;99.90;;;;;;5053406;28;20248;-82
2023/11/22 07:05:10;;;;;;;30.75;9.73;;;5.50;99.90;;;;;;5053675;28;20201;-82
2023/11/22 07:07:37;;;;;;;28.87;9.20;;;5.50;99.90;;;;;;5053631;28;20169;-82
2023/11/22 07:10:07;;;;;;;30.70;9.73;;;5.50;99.90;;;;;;5036383;28;20409;-82
2023/11/22 07:12:36;;;;;;;29.25;9.55;;;5.50;99.90;;;;;;5036839;28;20261;-82
2023/11/22 07:15:02;;;;;;;28.25;8.57;;;5.50;99.90;;;;;;5035373;28;20201;-82
2023/11/22 07:17:28;;;;;;;28.83;9.07;;;5.40;99.90;;;;;;5053438;28;20157;-82
2023/11/22 07:19:55;;;;;;;28.40;9.30;;;5.40;99.90;;;;;;5051675;28;20183;-82
2023/11/22 07:22:24;;;;;;;29.35;8.90;;;5.40;99.90;;;;;;5053083;28;20405;-82
2023/11/22 07:24:54;;;;;;;27.98;9.38;;;5.40;99.90;;;;;;5035283;28;20190;-82
2023/11/22 07:27:20;;;;;;;26.88;8.38;;;5.40;99.90;;;;;;5052867;28;20162;-82
2023/11/22 07:29:52;;;;;;;30.20;8.80;;;5.30;99.90;;;;;;5035552;28;20174;-82
2023/11/22 07:32:20;;;;;;;29.40;8.55;;;5.40;99.90;;;;;;5052479;28;20186;-82
2023/11/22 07:34:46;;;;;;;34.72;9.63;;;5.40;99.90;;;;;;5035916;28;20192;-82
2023/11/22 07:37:13;;;;;;;30.43;10.07;;;5.40;99.90;;;;;;5052953;28;20185;-82
2023/11/22 07:39:39;;;;;;;30.02;9.73;;;5.30;99.90;;;;;;5052953;28;20413;-82
2023/11/22 07:42:08;;;;;;;30.35;8.48;;;5.30;99.90;;;;;;5035908;28;20166;-82
2023/11/22 07:44:37;;;;;;;31.13;9.30;;;5.30;99.90;;;;;;5035792;28;20185;-82
2023/11/22 07:47:09;;;;;;;30.75;8.70;;;5.40;99.90;;;;;;5052831;28;20170;-82
2023/11/22 07:50:15;;;;;;;31.48;8.52;;;5.40;99.90;;;;;;5035074;28;20157;-82
2023/11/22 07:52:41;;;;;;;31.63;8.40;;;5.40;99.90;;;;;;5014034;28;20195;-82
2023/11/22 07:55:08;;;;;;;33.10;9.15;;;5.50;99.90;;;;;;5054950;28;20182;-82
2023/11/22 07:57:34;;;;;;;27.63;8.35;;;5.40;99.90;;;;;;5053314;28;20164;-82
2023/11/22 08:00:00;;;;;;;27.08;8.70;;;5.40;99.90;;;;;;5052796;28;20647;-82
2023/11/22 08:02:28;;;;;;;29.20;8.98;;;5.50;99.90;;;;;;5053393;28;20158;-82
2023/11/22 08:04:55;;;;;;;29.00;9.13;;;5.50;99.90;;;;;;5035733;28;20196;-82
2023/11/22 08:07:22;;;;;;;28.13;8.63;;;5.50;99.90;;;;;;5053492;28;20331;-82
2023/11/22 08:09:48;;;;;;;29.00;9.10;;;5.60;99.90;;;;;;5053159;28;20166;-82
2023/11/22 08:12:14;;;;;;;30.37;9.17;;;5.50;99.90;;;;;;5035766;28;20256;-81
2023/11/22 08:14:40;;;;;;;31.50;9.53;;;5.50;99.90;;;;;;5034667;28;20506;-82
2023/11/22 08:17:06;;;;;;;30.67;9.60;;;5.60;99.90;;;;;;5053786;28;20153;-82
2023/11/22 08:19:32;;;;;;;29.48;9.32;;;5.60;99.90;;;;;;5053993;28;20404;-82
2023/11/22 08:21:58;;;;;;;30.83;8.43;;;5.60;99.90;;;;;;5053267;28;20203;-82
2023/11/22 08:24:23;;;;;;;32.13;8.60;;;5.70;99.90;;;;;;5052859;28;20265;-82
2023/11/22 08:26:49;;;;;;;31.87;9.40;;;5.70;99.90;;;;;;5052739;28;20176;-82
2023/11/22 08:29:15;;;;;;;30.57;8.60;;;5.60;99.90;;;;;;5036101;28;20185;-82
2023/11/22 08:31:41;;;;;;;32.90;9.95;;;5.60;99.90;;;;;;5052661;28;20182;-82
2023/11/22 08:34:07;;;;;;;33.57;9.83;;;5.60;99.90;;;;;;5053202;28;20185;-82
2023/11/22 08:36:36;;;;;;;33.77;9.47;;;5.60;99.90;;;;;;5035673;28;20169;-82
2023/11/22 08:39:04;;;;;;;31.33;10.63;;;5.70;99.90;;;;;;5035008;28;20412;-81
2023/11/22 08:41:30;;;;;;;31.42;10.10;;;5.60;99.90;;;;;;5053188;28;20169;-81
2023/11/22 08:44:01;;;;;;;31.23;9.00;;;5.60;99.90;;;;;;5035127;28;20336;-82
2023/11/22 08:46:27;;;;;;;30.20;9.02;;;5.60;99.90;;;;;;5052890;28;20910;-81
2023/11/22 08:48:53;;;;;;;31.75;9.73;;;5.70;99.90;;;;;;5034756;28;20157;-81
2023/11/22 08:51:19;;;;;;;33.17;10.07;;;5.70;99.90;;;;;;5034643;28;20189;-81
2023/11/22 08:53:47;;;;;;;31.00;10.40;;;5.80;99.90;;;;;;5052062;28;20197;-81
2023/11/22 08:56:13;;;;;;;30.80;8.95;;;5.80;99.90;;;;;;5034883;28;20252;-81
2023/11/22 08:58:39;;;;;;;31.13;8.73;;;5.70;99.90;;;;;;5052832;28;20532;-81
2023/11/22 09:01:07;;;;;;;32.28;8.80;;;5.70;99.90;;;;;;5052857;28;20162;-81
2023/11/22 09:03:34;;;;;;;33.00;9.57;;;5.70;99.90;;;;;;5052271;28;20182;-82
2023/11/22 09:06:00;;;;;;;34.15;10.10;;;5.70;99.90;;;;;;5052517;28;20162;-82
2023/11/22 09:08:26;;;;;;;33.10;9.50;;;5.70;99.90;;;;;;5035047;28;20165;-82
2023/11/22 09:10:55;;;;;;;31.80;9.05;;;5.70;99.90;;;;;;5034853;28;20194;-82
2023/11/22 09:13:24;;;;;;;30.73;9.05;;;5.80;99.90;;;;;;5035040;28;20198;-81
2023/11/22 09:15:50;;;;;;;36.40;9.35;;;5.80;99.90;;;;;;5052498;28;20158;-82
2023/11/22 09:18:16;;;;;;;28.25;8.10;;;5.80;99.90;;;;;;5031273;28;20169;-80
2023/11/22 09:20:45;;;;;;;31.63;8.80;;;5.90;99.90;;;;;;5047060;28;20162;-81
2023/11/22 09:23:11;;;;;;;32.97;9.48;;;5.90;99.90;;;;;;5030165;28;20232;-81
2023/11/22 09:25:37;;;;;;;31.90;8.98;;;5.90;99.90;;;;;;5033445;28;20154;-82
2023/11/22 09:28:03;;;;;;;31.67;7.72;;;5.90;99.90;;;;;;5035220;28;20184;-82
2023/11/22 09:30:42;;;;;;;29.00;7.67;;;6.10;99.90;;;;;;5034984;28;20243;-82
2023/11/22 09:33:14;;;;;;;29.40;8.75;;;6.20;99.90;;;;;;5052503;28;20389;-82
2023/11/22 09:35:43;;;;;;;26.65;7.80;;;6.30;99.90;;;;;;5046176;28;20510;-81
2023/11/22 09:38:11;;;;;;;28.58;7.75;;;6.30;99.90;;;;;;5034952;28;20161;-82
2023/11/22 09:40:41;;;;;;;28.20;7.50;;;6.40;99.90;;;;;;5053042;28;20142;-82
2023/11/22 09:43:07;;;;;;;28.10;7.70;;;6.60;99.90;;;;;;5051433;28;20212;-81
2023/11/22 09:45:34;;;;;;;24.60;6.40;;;6.60;99.90;;;;;;5052046;28;20161;-81
2023/11/22 09:48:02;;;;;;;27.65;7.30;;;6.70;99.90;;;;;;5034401;28;20412;-81
2023/11/22 09:50:53;;;;;;;27.95;6.50;;;6.70;99.90;;;;;;5034680;28;20196;-81
2023/11/22 09:53:31;;;;;;;24.25;6.10;;;6.70;99.90;;;;;;5051534;28;20158;-81
2023/11/22 09:55:58;;;;;;;24.55;6.47;;;6.80;99.90;;;;;;5052196;28;20142;-81
2023/11/22 09:58:24;;;;;;;25.17;5.75;;;7.00;99.90;;;;;;5052287;28;20143;-81
2023/11/22 10:00:52;;;;;;;28.27;7.25;;;7.00;99.90;;;;;;5034599;28;20174;-81
2023/11/22 10:03:20;;;;;;;22.60;5.50;;;7.20;99.90;;;;;;5028576;28;20169;-81
2023/11/22 10:05:45;;;;;;;25.35;6.47;;;7.20;99.90;;;;;;5031350;28;20162;-81
2023/11/22 10:08:17;;;;;;;28.10;7.03;;;7.20;99.90;;;;;;5051216;28;20229;-81
2023/11/22 10:10:45;;;;;;;22.42;6.00;;;7.30;99.90;;;;;;5051908;28;20265;-81
2023/11/22 10:13:12;;;;;;;20.95;5.03;;;7.40;97.70;;;;;;5033918;28;20166;-81
2023/11/22 10:15:38;;;;;;;23.42;5.20;;;7.40;99.00;;;;;;5032827;28;20260;-81
2023/11/22 10:18:07;;;;;;;25.23;5.87;;;7.40;98.40;;;;;;5051304;28;20169;-81
2023/11/22 10:20:36;;;;;;;22.00;5.22;;;7.50;99.80;;;;;;5051459;28;20158;-81
2023/11/22 10:23:03;;;;;;;21.42;5.30;;;7.60;99.90;;;;;;5051204;28;20162;-81
2023/11/22 10:25:32;;;;;;;22.23;5.22;;;7.70;99.20;;;;;;5050713;28;20166;-81
2023/11/22 10:27:58;;;;;;;21.52;5.25;;;7.60;90.50;;;;;;5049186;28;20150;-80
2023/11/22 10:30:24;;;;;;;22.50;5.55;;;7.60;81.30;;;;;;5033190;28;20536;-81
2023/11/22 10:32:51;;;;;;;23.30;5.90;;;7.60;83.10;;;;;;5050091;28;20190;-81
2023/11/22 10:35:22;;;;;;;23.20;5.32;;;7.70;86.80;;;;;;5034403;28;20204;-80
2023/11/22 10:37:48;;;;;;;20.98;4.47;;;7.70;84.60;;;;;;5033616;28;20195;-81
2023/11/22 10:40:15;;;;;;;20.98;4.72;;;7.90;81.10;;;;;;5050974;28;20176;-81
2023/11/22 10:42:48;;;;;;;23.27;5.35;;;7.80;67.30;;;;;;5049886;28;20157;-81
2023/11/22 10:45:19;;;;;;;21.13;5.07;;;7.90;76.60;;;;;;5032463;28;20185;-80
2023/11/22 10:47:46;;;;;;;22.13;4.90;;;7.80;46.00;;;;;;5050765;28;20147;-80
2023/11/22 10:50:14;;;;;;;21.08;4.30;;;7.70;28.10;;;;;;5051007;28;20162;-81
2023/11/22 10:52:45;;;;;;;21.83;4.95;;;7.70;36.10;;;;;;5033025;28;20160;-80
2023/11/22 10:55:15;;;;;;;24.90;5.03;;;7.70;29.90;;;;;;5053904;28;20210;-81
2023/11/22 10:57:51;;;;;;;18.30;3.95;;;7.70;1.00;;;;;;5037829;28;20162;-81
2023/11/22 11:00:22;;;;;;;19.13;3.72;;;7.70;1.00;;;;;;5038980;28;20160;-81
2023/11/22 11:02:54;;;;;;;22.92;4.72;;;7.80;1.00;;;;;;5037544;28;20169;-81
2023/11/22 11:05:28;;;;;;;22.58;4.78;;;7.80;1.00;;;;;;5053894;28;20205;-81
2023/11/22 11:08:10;;;;;;;19.85;4.13;;;7.90;1.00;;;;;;5054307;28;20619;-81
2023/11/22 11:10:46;;;;;;;20.75;4.50;;;8.00;1.00;;;;;;5037283;28;20190;-81
2023/11/22 11:13:13;;;;;;;19.17;3.45;;;7.90;1.00;;;;;;5037083;28;20172;-81
2023/11/22 11:15:43;;;;;;;19.92;3.97;;;7.80;1.00;;;;;;5054832;28;20192;-81
2023/11/22 11:18:13;;;;;;;20.08;4.55;;;7.80;1.00;;;;;;5053837;28;20162;-81
2023/11/22 11:20:58;;;;;;;19.45;4.03;;;7.80;1.00;;;;;;5053836;28;20174;-81
2023/11/22 11:23:25;;;;;;;19.20;3.55;;;7.90;1.00;;;;;;5055030;28;20197;-81
2023/11/22 11:26:08;;;;;;;22.23;3.80;;;7.90;1.00;;;;;;5054338;28;20162;-81
2023/11/22 11:28:44;;;;;;;18.02;3.58;;;7.90;1.00;;;;;;5055087;28;20230;-81
2023/11/22 11:31:10;;;;;;;19.63;3.63;;;7.90;1.00;;;;;;5037090;28;20194;-81
2023/11/22 11:33:55;;;;;;;18.60;4.07;;;8.00;1.00;;;;;;5053796;28;20193;-81
2023/11/22 11:36:32;;;;;;;17.98;3.33;;;8.00;1.00;;;;;;5054744;28;20151;-81
2023/11/22 11:39:03;;;;;;;20.58;3.20;;;8.00;1.00;;;;;;5036762;28;20650;-81
2023/11/22 11:41:34;;;;;;;20.60;3.75;;;8.00;1.00;;;;;;5054293;28;20151;-81
2023/11/22 11:44:07;;;;;;;19.33;3.45;;;8.10;1.00;;;;;;5036043;28;20190;-80
2023/11/22 11:46:39;;;;;;;20.80;3.58;;;8.10;1.00;;;;;;5052958;28;20182;-81
2023/11/22 11:49:13;;;;;;;19.85;3.67;;;8.10;1.00;;;;;;5033968;28;20177;-81
2023/11/22 11:51:39;;;;;;;18.95;3.95;;;8.20;1.00;;;;;;5035263;28;20185;-81
2023/11/22 11:54:11;;;;;;;17.30;3.10;;;7.90;1.00;;;;;;5051757;28;20203;-81
2023/11/22 11:56:37;;;;;;;23.75;3.90;;;7.90;1.00;;;;;;5053036;28;20154;-81
2023/11/22 11:59:03;;;;;;;19.00;3.10;;;8.00;1.00;;;;;;5052915;28;20284;-81
2023/11/22 12:01:35;;;;;;;19.30;3.75;;;8.00;1.00;;;;;;5036464;28;20180;-82
2023/11/22 12:04:02;;;;;;;18.00;3.10;;;8.10;1.00;;;;;;5054098;28;20200;-81
2023/11/22 12:06:33;;;;;;;18.02;3.55;;;8.20;1.00;;;;;;5053291;28;20245;-81
2023/11/22 12:09:04;;;;;;;17.77;3.75;;;8.20;1.00;;;;;;5036383;28;20162;-81
2023/11/22 12:11:32;;;;;;;17.75;3.60;;;8.30;1.00;;;;;;5054255;28;20262;-82
2023/11/22 12:13:58;;;;;;;18.20;3.55;;;8.40;1.00;;;;;;5053304;28;20261;-81
2023/11/22 12:16:24;;;;;;;20.73;3.90;;;8.30;1.00;;;;;;5052947;28;20169;-81
2023/11/22 12:18:53;;;;;;;18.67;3.70;;;8.30;1.00;;;;;;5036191;28;20500;-81
2023/11/22 12:21:19;;;;;;;17.00;3.15;;;8.20;1.00;;;;;;5032902;28;20533;-80
2023/11/22 12:23:52;;;;;;;18.08;3.20;;;8.20;1.00;;;;;;5051852;28;20182;-82
2023/11/22 12:26:22;;;;;;;19.45;3.40;;;8.20;1.00;;;;;;5052784;28;20165;-82
2023/11/22 12:28:50;;;;;;;19.65;3.28;;;8.20;1.00;;;;;;5051122;28;20165;-82
2023/11/22 12:31:18;;;;;;;18.02;2.88;;;8.20;1.00;;;;;;5051875;28;20189;-82
2023/11/22 12:33:48;;;;;;;18.17;3.85;;;8.10;1.00;;;;;;5053839;28;20182;-82
2023/11/22 12:36:17;;;;;;;17.17;2.90;;;8.00;1.00;;;;;;5035745;28;20166;-82
2023/11/22 12:38:43;;;;;;;22.48;3.22;;;7.90;1.00;;;;;;5036485;28;20221;-82
2023/11/22 12:41:13;;;;;;;18.83;3.37;;;7.90;1.00;;;;;;5053999;28;20188;-82
2023/11/22 12:43:44;;;;;;;18.63;3.10;;;7.80;1.00;;;;;;5054076;28;20185;-82
2023/11/22 12:46:13;;;;;;;19.75;4.10;;;7.80;1.00;;;;;;5053635;28;20206;-81
2023/11/22 12:48:41;;;;;;;20.27;3.88;;;7.60;1.00;;;;;;5053843;28;20161;-81
2023/11/22 12:51:16;;;;;;;17.75;3.05;;;7.60;1.00;;;;;;5035404;28;20196;-81
2023/11/22 12:53:42;;;;;;;19.25;3.55;;;7.70;1.00;;;;;;5053970;28;20208;-81